sensor_id;sensor_type;location;lat;lon;timestamp;P1;durP1;ratioP1;P2;durP2;ratioP2
63346;SDS011;49472;49.880;8.650;2023-01-15T00:01:03;2.07;;;1.60;;
63346;SDS011;49472;49.880;8.650;2023-01-15T00:03:29;2.10;;;1.90;;
63346;SDS011;49472;49.880;8.650;2023-01-15T00:05:55;1.77;;;1.67;;
63346;SDS011;49472;49.880;8.650;2023-01-15T00:08:20;2.27;;;2.07;;
63346;SDS011;49472;49.880;8.650;2023-01-15T00:10:45;2.60;;;1.60;;
63346;SDS011;49472;49.880;8.650;2023-01-15T00:13:12;1.87;;;1.77;;
63346;SDS011;49472;49.880;8.650;2023-01-15T00:15:37;2.13;;;1.47;;
63346;SDS011;49472;49.880;8.650;2023-01-15T00:18:03;3.47;;;2.00;;
63346;SDS011;49472;49.880;8.650;2023-01-15T00:20:28;1.87;;;1.77;;
63346;SDS011;49472;49.880;8.650;2023-01-15T00:22:54;1.80;;;1.70;;
63346;SDS011;49472;49.880;8.650;2023-01-15T00:25:19;1.60;;;1.53;;
63346;SDS011;49472;49.880;8.650;2023-01-15T00:28:04;1.47;;;1.30;;
63346;SDS011;49472;49.880;8.650;2023-01-15T00:30:30;2.50;;;1.60;;
63346;SDS011;49472;49.880;8.650;2023-01-15T00:32:56;1.83;;;1.70;;
63346;SDS011;49472;49.880;8.650;2023-01-15T00:35:22;1.83;;;1.40;;
63346;SDS011;49472;49.880;8.650;2023-01-15T00:37:48;3.60;;;1.93;;
63346;SDS011;49472;49.880;8.650;2023-01-15T00:40:14;3.53;;;1.70;;
63346;SDS011;49472;49.880;8.650;2023-01-15T00:42:41;2.53;;;1.43;;
63346;SDS011;49472;49.880;8.650;2023-01-15T00:45:07;1.80;;;1.70;;
63346;SDS011;49472;49.880;8.650;2023-01-15T00:47:37;1.47;;;1.40;;
63346;SDS011;49472;49.880;8.650;2023-01-15T00:50:04;4.03;;;1.53;;
63346;SDS011;49472;49.880;8.650;2023-01-15T00:52:31;2.10;;;1.60;;
63346;SDS011;49472;49.880;8.650;2023-01-15T00:54:56;1.50;;;1.40;;
63346;SDS011;49472;49.880;8.650;2023-01-15T00:57:22;1.70;;;1.60;;
63346;SDS011;49472;49.880;8.650;2023-01-15T00:59:48;3.93;;;1.93;;
63346;SDS011;49472;49.880;8.650;2023-01-15T01:02:14;1.80;;;1.70;;
63346;SDS011;49472;49.880;8.650;2023-01-15T01:04:39;1.70;;;1.60;;
63346;SDS011;49472;49.880;8.650;2023-01-15T01:07:05;1.50;;;1.50;;
63346;SDS011;49472;49.880;8.650;2023-01-15T01:09:30;3.10;;;1.60;;
63346;SDS011;49472;49.880;8.650;2023-01-15T01:11:56;1.63;;;1.53;;
63346;SDS011;49472;49.880;8.650;2023-01-15T01:14:21;1.50;;;1.40;;
63346;SDS011;49472;49.880;8.650;2023-01-15T01:16:46;1.73;;;1.63;;
63346;SDS011;49472;49.880;8.650;2023-01-15T01:19:19;1.40;;;1.40;;
63346;SDS011;49472;49.880;8.650;2023-01-15T01:21:46;1.70;;;1.60;;
63346;SDS011;49472;49.880;8.650;2023-01-15T01:24:14;6.30;;;1.50;;
63346;SDS011;49472;49.880;8.650;2023-01-15T01:26:41;1.13;;;1.13;;
63346;SDS011;49472;49.880;8.650;2023-01-15T01:29:11;1.10;;;1.10;;
63346;SDS011;49472;49.880;8.650;2023-01-15T01:31:38;2.47;;;1.80;;
63346;SDS011;49472;49.880;8.650;2023-01-15T01:34:03;1.53;;;1.43;;
63346;SDS011;49472;49.880;8.650;2023-01-15T01:36:32;1.60;;;1.50;;
63346;SDS011;49472;49.880;8.650;2023-01-15T01:39:00;2.60;;;2.40;;
63346;SDS011;49472;49.880;8.650;2023-01-15T01:41:27;2.60;;;2.50;;
63346;SDS011;49472;49.880;8.650;2023-01-15T01:44:01;2.40;;;2.30;;
63346;SDS011;49472;49.880;8.650;2023-01-15T01:46:33;4.13;;;2.50;;
63346;SDS011;49472;49.880;8.650;2023-01-15T01:49:03;4.43;;;2.60;;
63346;SDS011;49472;49.880;8.650;2023-01-15T01:51:34;2.70;;;2.60;;
63346;SDS011;49472;49.880;8.650;2023-01-15T01:54:04;3.40;;;3.10;;
63346;SDS011;49472;49.880;8.650;2023-01-15T01:56:33;2.83;;;2.73;;
63346;SDS011;49472;49.880;8.650;2023-01-15T01:59:00;3.47;;;3.27;;
63346;SDS011;49472;49.880;8.650;2023-01-15T02:01:26;10.67;;;3.93;;
63346;SDS011;49472;49.880;8.650;2023-01-15T02:03:51;4.33;;;3.70;;
63346;SDS011;49472;49.880;8.650;2023-01-15T02:06:17;3.70;;;3.03;;
63346;SDS011;49472;49.880;8.650;2023-01-15T02:08:43;4.87;;;2.90;;
63346;SDS011;49472;49.880;8.650;2023-01-15T02:11:13;1.90;;;1.80;;
63346;SDS011;49472;49.880;8.650;2023-01-15T02:16:26;5.43;;;1.70;;
63346;SDS011;49472;49.880;8.650;2023-01-15T02:27:16;1.10;;;1.10;;
63346;SDS011;49472;49.880;8.650;2023-01-15T02:29:49;0.90;;;0.90;;
63346;SDS011;49472;49.880;8.650;2023-01-15T02:32:40;1.23;;;1.23;;
63346;SDS011;49472;49.880;8.650;2023-01-15T02:37:44;0.83;;;0.83;;
63346;SDS011;49472;49.880;8.650;2023-01-15T02:40:13;1.13;;;0.90;;
63346;SDS011;49472;49.880;8.650;2023-01-15T02:42:39;1.00;;;1.00;;
63346;SDS011;49472;49.880;8.650;2023-01-15T02:45:06;1.13;;;0.90;;
63346;SDS011;49472;49.880;8.650;2023-01-15T02:47:35;0.80;;;0.80;;
63346;SDS011;49472;49.880;8.650;2023-01-15T02:50:05;0.90;;;0.90;;
63346;SDS011;49472;49.880;8.650;2023-01-15T02:52:34;1.13;;;0.80;;
63346;SDS011;49472;49.880;8.650;2023-01-15T02:55:05;0.70;;;0.70;;
63346;SDS011;49472;49.880;8.650;2023-01-15T02:57:34;2.30;;;0.90;;
63346;SDS011;49472;49.880;8.650;2023-01-15T03:00:03;0.80;;;0.80;;
63346;SDS011;49472;49.880;8.650;2023-01-15T03:02:34;1.90;;;1.20;;
63346;SDS011;49472;49.880;8.650;2023-01-15T03:07:40;1.00;;;0.90;;
63346;SDS011;49472;49.880;8.650;2023-01-15T03:10:11;0.80;;;0.80;;
63346;SDS011;49472;49.880;8.650;2023-01-15T03:12:49;0.80;;;0.80;;
63346;SDS011;49472;49.880;8.650;2023-01-15T03:18:42;4.67;;;0.80;;
63346;SDS011;49472;49.880;8.650;2023-01-15T03:21:11;2.10;;;1.10;;
63346;SDS011;49472;49.880;8.650;2023-01-15T03:23:41;0.60;;;0.60;;
63346;SDS011;49472;49.880;8.650;2023-01-15T03:26:12;0.70;;;0.70;;
63346;SDS011;49472;49.880;8.650;2023-01-15T03:28:37;0.77;;;0.77;;
63346;SDS011;49472;49.880;8.650;2023-01-15T03:31:05;1.73;;;0.60;;
63346;SDS011;49472;49.880;8.650;2023-01-15T03:33:30;0.90;;;0.73;;
63346;SDS011;49472;49.880;8.650;2023-01-15T03:35:57;3.40;;;0.70;;
63346;SDS011;49472;49.880;8.650;2023-01-15T03:38:24;0.60;;;0.60;;
63346;SDS011;49472;49.880;8.650;2023-01-15T03:43:50;0.60;;;0.60;;
63346;SDS011;49472;49.880;8.650;2023-01-15T03:46:28;0.80;;;0.77;;
63346;SDS011;49472;49.880;8.650;2023-01-15T03:52:04;0.70;;;0.70;;
63346;SDS011;49472;49.880;8.650;2023-01-15T03:54:55;5.30;;;0.80;;
63346;SDS011;49472;49.880;8.650;2023-01-15T03:57:35;1.30;;;0.60;;
63346;SDS011;49472;49.880;8.650;2023-01-15T04:00:54;1.17;;;0.80;;
63346;SDS011;49472;49.880;8.650;2023-01-15T04:03:16;1.40;;;0.73;;
63346;SDS011;49472;49.880;8.650;2023-01-15T04:05:44;0.60;;;0.60;;
63346;SDS011;49472;49.880;8.650;2023-01-15T04:08:11;1.73;;;0.70;;
63346;SDS011;49472;49.880;8.650;2023-01-15T04:10:48;0.60;;;0.60;;
63346;SDS011;49472;49.880;8.650;2023-01-15T04:13:18;1.30;;;0.83;;
63346;SDS011;49472;49.880;8.650;2023-01-15T04:15:43;0.70;;;0.70;;
63346;SDS011;49472;49.880;8.650;2023-01-15T04:18:09;0.60;;;0.60;;
63346;SDS011;49472;49.880;8.650;2023-01-15T04:20:34;1.23;;;1.03;;
63346;SDS011;49472;49.880;8.650;2023-01-15T04:22:59;0.73;;;0.73;;
63346;SDS011;49472;49.880;8.650;2023-01-15T04:25:25;0.70;;;0.70;;
63346;SDS011;49472;49.880;8.650;2023-01-15T04:27:52;0.70;;;0.70;;
63346;SDS011;49472;49.880;8.650;2023-01-15T04:30:18;0.67;;;0.67;;
63346;SDS011;49472;49.880;8.650;2023-01-15T04:32:43;3.23;;;0.80;;
63346;SDS011;49472;49.880;8.650;2023-01-15T04:35:12;0.67;;;0.67;;
63346;SDS011;49472;49.880;8.650;2023-01-15T04:37:38;5.70;;;0.90;;
63346;SDS011;49472;49.880;8.650;2023-01-15T04:40:03;0.93;;;0.70;;
63346;SDS011;49472;49.880;8.650;2023-01-15T04:42:29;5.70;;;3.50;;
63346;SDS011;49472;49.880;8.650;2023-01-15T04:45:13;2.83;;;1.10;;
63346;SDS011;49472;49.880;8.650;2023-01-15T04:47:38;0.90;;;0.90;;
63346;SDS011;49472;49.880;8.650;2023-01-15T04:50:03;3.53;;;0.70;;
63346;SDS011;49472;49.880;8.650;2023-01-15T04:52:29;0.60;;;0.60;;
63346;SDS011;49472;49.880;8.650;2023-01-15T04:54:55;0.60;;;0.60;;
63346;SDS011;49472;49.880;8.650;2023-01-15T04:57:20;0.70;;;0.70;;
63346;SDS011;49472;49.880;8.650;2023-01-15T04:59:45;0.90;;;0.90;;
63346;SDS011;49472;49.880;8.650;2023-01-15T05:02:11;0.60;;;0.60;;
63346;SDS011;49472;49.880;8.650;2023-01-15T05:04:36;1.27;;;0.80;;
63346;SDS011;49472;49.880;8.650;2023-01-15T05:07:02;0.77;;;0.77;;
63346;SDS011;49472;49.880;8.650;2023-01-15T05:09:29;0.63;;;0.63;;
63346;SDS011;49472;49.880;8.650;2023-01-15T05:11:55;2.90;;;1.13;;
63346;SDS011;49472;49.880;8.650;2023-01-15T05:14:20;1.80;;;1.10;;
63346;SDS011;49472;49.880;8.650;2023-01-15T05:16:45;3.43;;;1.50;;
63346;SDS011;49472;49.880;8.650;2023-01-15T05:19:11;3.80;;;1.93;;
63346;SDS011;49472;49.880;8.650;2023-01-15T05:21:38;1.00;;;1.00;;
63346;SDS011;49472;49.880;8.650;2023-01-15T05:24:05;1.03;;;0.90;;
63346;SDS011;49472;49.880;8.650;2023-01-15T05:26:35;3.63;;;0.80;;
63346;SDS011;49472;49.880;8.650;2023-01-15T05:29:01;0.80;;;0.80;;
63346;SDS011;49472;49.880;8.650;2023-01-15T05:31:27;1.33;;;1.03;;
63346;SDS011;49472;49.880;8.650;2023-01-15T05:33:53;0.70;;;0.70;;
63346;SDS011;49472;49.880;8.650;2023-01-15T05:36:20;0.83;;;0.83;;
63346;SDS011;49472;49.880;8.650;2023-01-15T05:38:47;0.80;;;0.80;;
63346;SDS011;49472;49.880;8.650;2023-01-15T05:41:14;1.00;;;1.00;;
63346;SDS011;49472;49.880;8.650;2023-01-15T05:44:00;0.80;;;0.70;;
63346;SDS011;49472;49.880;8.650;2023-01-15T05:46:28;2.37;;;0.70;;
63346;SDS011;49472;49.880;8.650;2023-01-15T05:48:53;1.90;;;0.70;;
63346;SDS011;49472;49.880;8.650;2023-01-15T05:51:19;0.73;;;0.73;;
63346;SDS011;49472;49.880;8.650;2023-01-15T05:53:44;0.70;;;0.70;;
63346;SDS011;49472;49.880;8.650;2023-01-15T05:56:10;0.87;;;0.80;;
63346;SDS011;49472;49.880;8.650;2023-01-15T05:58:35;2.47;;;0.80;;
63346;SDS011;49472;49.880;8.650;2023-01-15T06:01:10;1.70;;;0.80;;
63346;SDS011;49472;49.880;8.650;2023-01-15T06:03:36;0.87;;;0.87;;
63346;SDS011;49472;49.880;8.650;2023-01-15T06:06:02;3.03;;;1.00;;
63346;SDS011;49472;49.880;8.650;2023-01-15T06:08:27;2.70;;;1.00;;
63346;SDS011;49472;49.880;8.650;2023-01-15T06:10:53;1.17;;;1.00;;
63346;SDS011;49472;49.880;8.650;2023-01-15T06:13:18;1.10;;;1.00;;
63346;SDS011;49472;49.880;8.650;2023-01-15T06:15:43;0.70;;;0.70;;
63346;SDS011;49472;49.880;8.650;2023-01-15T06:18:09;2.37;;;1.00;;
63346;SDS011;49472;49.880;8.650;2023-01-15T06:20:35;0.70;;;0.70;;
63346;SDS011;49472;49.880;8.650;2023-01-15T06:23:02;0.90;;;0.90;;
63346;SDS011;49472;49.880;8.650;2023-01-15T06:25:27;0.77;;;0.77;;
63346;SDS011;49472;49.880;8.650;2023-01-15T06:27:52;0.87;;;0.87;;
63346;SDS011;49472;49.880;8.650;2023-01-15T06:30:17;0.80;;;0.80;;
63346;SDS011;49472;49.880;8.650;2023-01-15T06:32:43;1.10;;;0.93;;
63346;SDS011;49472;49.880;8.650;2023-01-15T06:35:08;1.30;;;0.70;;
63346;SDS011;49472;49.880;8.650;2023-01-15T06:37:34;0.73;;;0.73;;
63346;SDS011;49472;49.880;8.650;2023-01-15T06:39:59;2.07;;;1.97;;
63346;SDS011;49472;49.880;8.650;2023-01-15T06:42:25;2.67;;;2.47;;
63346;SDS011;49472;49.880;8.650;2023-01-15T06:45:09;3.83;;;2.67;;
63346;SDS011;49472;49.880;8.650;2023-01-15T06:47:54;2.83;;;2.60;;
63346;SDS011;49472;49.880;8.650;2023-01-15T06:50:20;1.60;;;1.50;;
63346;SDS011;49472;49.880;8.650;2023-01-15T06:52:45;1.63;;;1.43;;
63346;SDS011;49472;49.880;8.650;2023-01-15T06:55:10;2.10;;;1.90;;
63346;SDS011;49472;49.880;8.650;2023-01-15T06:57:39;1.60;;;1.50;;
63346;SDS011;49472;49.880;8.650;2023-01-15T07:00:05;1.67;;;1.30;;
63346;SDS011;49472;49.880;8.650;2023-01-15T07:02:32;2.10;;;1.33;;
63346;SDS011;49472;49.880;8.650;2023-01-15T07:04:58;1.07;;;1.07;;
63346;SDS011;49472;49.880;8.650;2023-01-15T07:07:23;3.10;;;1.40;;
63346;SDS011;49472;49.880;8.650;2023-01-15T07:09:49;1.30;;;1.20;;
63346;SDS011;49472;49.880;8.650;2023-01-15T07:12:15;2.80;;;1.00;;
63346;SDS011;49472;49.880;8.650;2023-01-15T07:14:41;2.60;;;1.20;;
63346;SDS011;49472;49.880;8.650;2023-01-15T07:17:06;1.20;;;1.10;;
63346;SDS011;49472;49.880;8.650;2023-01-15T07:19:32;0.80;;;0.80;;
63346;SDS011;49472;49.880;8.650;2023-01-15T07:21:57;2.40;;;0.90;;
63346;SDS011;49472;49.880;8.650;2023-01-15T07:24:22;0.90;;;0.80;;
63346;SDS011;49472;49.880;8.650;2023-01-15T07:26:48;1.97;;;1.00;;
63346;SDS011;49472;49.880;8.650;2023-01-15T07:29:13;1.53;;;1.43;;
63346;SDS011;49472;49.880;8.650;2023-01-15T07:31:39;1.57;;;1.23;;
63346;SDS011;49472;49.880;8.650;2023-01-15T07:34:04;2.10;;;1.03;;
63346;SDS011;49472;49.880;8.650;2023-01-15T07:36:30;1.13;;;1.03;;
63346;SDS011;49472;49.880;8.650;2023-01-15T07:38:56;2.80;;;1.00;;
63346;SDS011;49472;49.880;8.650;2023-01-15T07:41:21;1.27;;;1.00;;
63346;SDS011;49472;49.880;8.650;2023-01-15T07:44:05;3.67;;;0.80;;
63346;SDS011;49472;49.880;8.650;2023-01-15T07:46:49;1.00;;;1.00;;
63346;SDS011;49472;49.880;8.650;2023-01-15T07:49:33;2.80;;;1.00;;
63346;SDS011;49472;49.880;8.650;2023-01-15T07:52:17;0.97;;;0.97;;
63346;SDS011;49472;49.880;8.650;2023-01-15T07:54:44;7.83;;;1.17;;
63346;SDS011;49472;49.880;8.650;2023-01-15T07:57:12;1.00;;;1.00;;
63346;SDS011;49472;49.880;8.650;2023-01-15T07:59:39;1.20;;;1.03;;
63346;SDS011;49472;49.880;8.650;2023-01-15T08:02:05;2.20;;;1.17;;
63346;SDS011;49472;49.880;8.650;2023-01-15T08:04:30;0.90;;;0.90;;
63346;SDS011;49472;49.880;8.650;2023-01-15T08:06:57;0.93;;;0.93;;
63346;SDS011;49472;49.880;8.650;2023-01-15T08:09:24;1.03;;;0.90;;
63346;SDS011;49472;49.880;8.650;2023-01-15T08:11:50;0.97;;;0.97;;
63346;SDS011;49472;49.880;8.650;2023-01-15T08:14:33;3.93;;;0.90;;
63346;SDS011;49472;49.880;8.650;2023-01-15T08:17:17;1.10;;;1.10;;
63346;SDS011;49472;49.880;8.650;2023-01-15T08:19:42;3.10;;;1.20;;
63346;SDS011;49472;49.880;8.650;2023-01-15T08:22:09;1.00;;;1.00;;
63346;SDS011;49472;49.880;8.650;2023-01-15T08:24:34;1.20;;;1.10;;
63346;SDS011;49472;49.880;8.650;2023-01-15T08:26:59;0.93;;;0.93;;
63346;SDS011;49472;49.880;8.650;2023-01-15T08:29:25;1.10;;;1.00;;
63346;SDS011;49472;49.880;8.650;2023-01-15T08:31:51;1.10;;;1.03;;
63346;SDS011;49472;49.880;8.650;2023-01-15T08:34:17;3.03;;;1.00;;
63346;SDS011;49472;49.880;8.650;2023-01-15T08:36:43;1.00;;;1.00;;
63346;SDS011;49472;49.880;8.650;2023-01-15T08:39:08;1.37;;;1.37;;
63346;SDS011;49472;49.880;8.650;2023-01-15T08:41:34;1.23;;;1.23;;
63346;SDS011;49472;49.880;8.650;2023-01-15T08:43:59;1.57;;;1.47;;
63346;SDS011;49472;49.880;8.650;2023-01-15T08:46:25;1.87;;;1.30;;
63346;SDS011;49472;49.880;8.650;2023-01-15T08:48:51;1.30;;;1.20;;
63346;SDS011;49472;49.880;8.650;2023-01-15T08:51:17;1.50;;;1.40;;
63346;SDS011;49472;49.880;8.650;2023-01-15T08:53:43;2.20;;;2.00;;
63346;SDS011;49472;49.880;8.650;2023-01-15T08:56:15;4.20;;;2.93;;
63346;SDS011;49472;49.880;8.650;2023-01-15T08:58:42;2.80;;;2.60;;
63346;SDS011;49472;49.880;8.650;2023-01-15T09:01:09;3.27;;;2.97;;
63346;SDS011;49472;49.880;8.650;2023-01-15T09:03:36;7.23;;;1.93;;
63346;SDS011;49472;49.880;8.650;2023-01-15T09:06:02;2.83;;;2.30;;
63346;SDS011;49472;49.880;8.650;2023-01-15T09:08:29;2.10;;;2.00;;
63346;SDS011;49472;49.880;8.650;2023-01-15T09:10:58;2.03;;;1.83;;
63346;SDS011;49472;49.880;8.650;2023-01-15T09:13:25;1.40;;;1.30;;
63346;SDS011;49472;49.880;8.650;2023-01-15T09:15:51;1.43;;;1.33;;
63346;SDS011;49472;49.880;8.650;2023-01-15T09:18:16;1.37;;;1.30;;
63346;SDS011;49472;49.880;8.650;2023-01-15T09:20:46;1.67;;;1.57;;
63346;SDS011;49472;49.880;8.650;2023-01-15T09:23:12;0.93;;;0.93;;
63346;SDS011;49472;49.880;8.650;2023-01-15T09:25:38;1.40;;;1.30;;
63346;SDS011;49472;49.880;8.650;2023-01-15T09:28:03;0.80;;;0.80;;
63346;SDS011;49472;49.880;8.650;2023-01-15T09:30:29;1.17;;;1.17;;
63346;SDS011;49472;49.880;8.650;2023-01-15T09:32:57;1.57;;;1.47;;
63346;SDS011;49472;49.880;8.650;2023-01-15T09:35:23;2.50;;;1.70;;
63346;SDS011;49472;49.880;8.650;2023-01-15T09:37:51;1.70;;;1.60;;
63346;SDS011;49472;49.880;8.650;2023-01-15T09:41:01;1.20;;;1.20;;
63346;SDS011;49472;49.880;8.650;2023-01-15T09:51:41;1.17;;;1.10;;
63346;SDS011;49472;49.880;8.650;2023-01-15T09:54:19;1.20;;;1.10;;
63346;SDS011;49472;49.880;8.650;2023-01-15T09:56:49;2.50;;;1.40;;
63346;SDS011;49472;49.880;8.650;2023-01-15T09:59:32;1.23;;;1.23;;
63346;SDS011;49472;49.880;8.650;2023-01-15T10:02:01;0.90;;;0.90;;
63346;SDS011;49472;49.880;8.650;2023-01-15T10:04:37;1.33;;;1.23;;
63346;SDS011;49472;49.880;8.650;2023-01-15T10:09:58;1.50;;;1.40;;
63346;SDS011;49472;49.880;8.650;2023-01-15T10:12:30;1.50;;;1.40;;
63346;SDS011;49472;49.880;8.650;2023-01-15T10:17:44;1.30;;;1.30;;
63346;SDS011;49472;49.880;8.650;2023-01-15T10:20:12;2.50;;;1.30;;
63346;SDS011;49472;49.880;8.650;2023-01-15T10:22:43;1.17;;;1.17;;
63346;SDS011;49472;49.880;8.650;2023-01-15T10:25:23;1.97;;;1.87;;
63346;SDS011;49472;49.880;8.650;2023-01-15T10:27:55;1.87;;;1.50;;
63346;SDS011;49472;49.880;8.650;2023-01-15T10:30:37;3.00;;;1.30;;
63346;SDS011;49472;49.880;8.650;2023-01-15T10:33:55;1.33;;;1.03;;
63346;SDS011;49472;49.880;8.650;2023-01-15T10:36:14;2.47;;;2.37;;
63346;SDS011;49472;49.880;8.650;2023-01-15T10:38:48;1.70;;;1.37;;
63346;SDS011;49472;49.880;8.650;2023-01-15T10:46:23;1.57;;;1.30;;
63346;SDS011;49472;49.880;8.650;2023-01-15T10:51:27;1.40;;;1.30;;
63346;SDS011;49472;49.880;8.650;2023-01-15T10:56:44;2.40;;;2.20;;
63346;SDS011;49472;49.880;8.650;2023-01-15T10:59:18;1.80;;;1.70;;
63346;SDS011;49472;49.880;8.650;2023-01-15T11:01:52;2.93;;;2.73;;
63346;SDS011;49472;49.880;8.650;2023-01-15T11:04:19;2.90;;;2.50;;
63346;SDS011;49472;49.880;8.650;2023-01-15T11:06:45;3.97;;;2.27;;
63346;SDS011;49472;49.880;8.650;2023-01-15T11:09:18;5.43;;;2.30;;
63346;SDS011;49472;49.880;8.650;2023-01-15T11:11:47;2.40;;;2.30;;
63346;SDS011;49472;49.880;8.650;2023-01-15T11:14:36;4.70;;;4.50;;
63346;SDS011;49472;49.880;8.650;2023-01-15T11:17:21;7.03;;;6.43;;
63346;SDS011;49472;49.880;8.650;2023-01-15T11:23:09;9.60;;;5.90;;
63346;SDS011;49472;49.880;8.650;2023-01-15T11:25:36;6.17;;;5.63;;
63346;SDS011;49472;49.880;8.650;2023-01-15T11:28:08;7.10;;;6.50;;
63346;SDS011;49472;49.880;8.650;2023-01-15T11:30:39;6.80;;;6.50;;
63346;SDS011;49472;49.880;8.650;2023-01-15T11:33:05;6.77;;;6.47;;
63346;SDS011;49472;49.880;8.650;2023-01-15T11:35:48;7.10;;;6.40;;
63346;SDS011;49472;49.880;8.650;2023-01-15T11:38:16;7.43;;;7.03;;
63346;SDS011;49472;49.880;8.650;2023-01-15T11:40:51;6.73;;;6.30;;
63346;SDS011;49472;49.880;8.650;2023-01-15T11:43:19;5.93;;;5.50;;
63346;SDS011;49472;49.880;8.650;2023-01-15T11:46:05;4.87;;;4.67;;
63346;SDS011;49472;49.880;8.650;2023-01-15T11:48:49;6.70;;;6.50;;
63346;SDS011;49472;49.880;8.650;2023-01-15T11:51:42;7.77;;;7.33;;
63346;SDS011;49472;49.880;8.650;2023-01-15T11:54:12;7.87;;;7.10;;
63346;SDS011;49472;49.880;8.650;2023-01-15T11:56:40;6.50;;;6.30;;
63346;SDS011;49472;49.880;8.650;2023-01-15T11:59:11;8.97;;;8.57;;
63346;SDS011;49472;49.880;8.650;2023-01-15T12:01:38;5.50;;;5.30;;
63346;SDS011;49472;49.880;8.650;2023-01-15T12:04:37;4.47;;;4.37;;
63346;SDS011;49472;49.880;8.650;2023-01-15T12:07:13;6.97;;;6.50;;
63346;SDS011;49472;49.880;8.650;2023-01-15T12:15:01;4.63;;;4.33;;
63346;SDS011;49472;49.880;8.650;2023-01-15T12:18:06;10.70;;;9.80;;
63346;SDS011;49472;49.880;8.650;2023-01-15T12:28:53;14.07;;;13.20;;
63346;SDS011;49472;49.880;8.650;2023-01-15T12:31:35;16.40;;;15.30;;
63346;SDS011;49472;49.880;8.650;2023-01-15T12:34:05;15.40;;;14.40;;
63346;SDS011;49472;49.880;8.650;2023-01-15T12:39:29;16.70;;;15.60;;
63346;SDS011;49472;49.880;8.650;2023-01-15T12:42:03;15.23;;;14.37;;
63346;SDS011;49472;49.880;8.650;2023-01-15T12:44:51;15.97;;;14.97;;
63346;SDS011;49472;49.880;8.650;2023-01-15T12:52:42;18.70;;;17.50;;
63346;SDS011;49472;49.880;8.650;2023-01-15T12:57:43;18.67;;;17.37;;
63346;SDS011;49472;49.880;8.650;2023-01-15T13:05:32;18.40;;;17.00;;
63346;SDS011;49472;49.880;8.650;2023-01-15T13:08:07;16.77;;;15.30;;
63346;SDS011;49472;49.880;8.650;2023-01-15T13:10:40;15.73;;;14.80;;
63346;SDS011;49472;49.880;8.650;2023-01-15T13:13:13;14.20;;;13.30;;
63346;SDS011;49472;49.880;8.650;2023-01-15T13:15:48;18.50;;;17.30;;
63346;SDS011;49472;49.880;8.650;2023-01-15T13:21:24;20.40;;;18.90;;
63346;SDS011;49472;49.880;8.650;2023-01-15T13:36:51;17.60;;;16.50;;
63346;SDS011;49472;49.880;8.650;2023-01-15T13:39:19;17.50;;;16.30;;
63346;SDS011;49472;49.880;8.650;2023-01-15T13:41:49;16.03;;;15.03;;
63346;SDS011;49472;49.880;8.650;2023-01-15T13:44:36;16.20;;;15.30;;
63346;SDS011;49472;49.880;8.650;2023-01-15T13:47:10;16.97;;;15.67;;
63346;SDS011;49472;49.880;8.650;2023-01-15T13:49:45;15.80;;;14.67;;
63346;SDS011;49472;49.880;8.650;2023-01-15T13:52:25;16.90;;;15.80;;
63346;SDS011;49472;49.880;8.650;2023-01-15T13:54:57;16.90;;;15.90;;
63346;SDS011;49472;49.880;8.650;2023-01-15T13:57:35;16.63;;;15.60;;
63346;SDS011;49472;49.880;8.650;2023-01-15T14:00:47;17.37;;;16.37;;
63346;SDS011;49472;49.880;8.650;2023-01-15T14:02:58;17.47;;;16.07;;
63346;SDS011;49472;49.880;8.650;2023-01-15T14:05:26;17.43;;;15.93;;
63346;SDS011;49472;49.880;8.650;2023-01-15T14:07:54;16.97;;;15.00;;
63346;SDS011;49472;49.880;8.650;2023-01-15T14:10:25;17.00;;;15.97;;
63346;SDS011;49472;49.880;8.650;2023-01-15T14:34:18;18.97;;;17.77;;
63346;SDS011;49472;49.880;8.650;2023-01-15T14:50:24;18.83;;;17.37;;
63346;SDS011;49472;49.880;8.650;2023-01-15T14:53:02;20.03;;;18.07;;
63346;SDS011;49472;49.880;8.650;2023-01-15T14:55:36;18.47;;;17.23;;
63346;SDS011;49472;49.880;8.650;2023-01-15T14:58:09;17.83;;;16.50;;
63346;SDS011;49472;49.880;8.650;2023-01-15T15:00:46;19.00;;;17.53;;
63346;SDS011;49472;49.880;8.650;2023-01-15T15:03:16;19.23;;;17.77;;
63346;SDS011;49472;49.880;8.650;2023-01-15T15:05:46;18.30;;;16.80;;
63346;SDS011;49472;49.880;8.650;2023-01-15T15:08:12;18.83;;;17.30;;
63346;SDS011;49472;49.880;8.650;2023-01-15T15:10:40;18.77;;;17.20;;
63346;SDS011;49472;49.880;8.650;2023-01-15T15:43:13;15.33;;;14.43;;
63346;SDS011;49472;49.880;8.650;2023-01-15T15:45:57;20.03;;;18.23;;
63346;SDS011;49472;49.880;8.650;2023-01-15T15:48:42;17.13;;;15.77;;
63346;SDS011;49472;49.880;8.650;2023-01-15T15:51:27;16.03;;;14.80;;
63346;SDS011;49472;49.880;8.650;2023-01-15T15:54:05;17.87;;;16.40;;
63346;SDS011;49472;49.880;8.650;2023-01-15T15:56:36;17.77;;;15.93;;
63346;SDS011;49472;49.880;8.650;2023-01-15T15:59:05;17.43;;;16.17;;
63346;SDS011;49472;49.880;8.650;2023-01-15T16:01:37;18.80;;;17.07;;
63346;SDS011;49472;49.880;8.650;2023-01-15T16:04:03;17.03;;;15.93;;
63346;SDS011;49472;49.880;8.650;2023-01-15T16:06:29;17.00;;;15.90;;
63346;SDS011;49472;49.880;8.650;2023-01-15T16:08:55;17.50;;;16.10;;
63346;SDS011;49472;49.880;8.650;2023-01-15T16:11:28;18.07;;;16.63;;
63346;SDS011;49472;49.880;8.650;2023-01-15T16:13:55;19.33;;;17.30;;
63346;SDS011;49472;49.880;8.650;2023-01-15T16:16:25;21.00;;;18.40;;
63346;SDS011;49472;49.880;8.650;2023-01-15T16:18:52;17.93;;;16.53;;
63346;SDS011;49472;49.880;8.650;2023-01-15T16:24:00;15.87;;;14.67;;
63346;SDS011;49472;49.880;8.650;2023-01-15T16:26:37;12.90;;;11.90;;
63346;SDS011;49472;49.880;8.650;2023-01-15T16:29:14;8.90;;;4.70;;
63346;SDS011;49472;49.880;8.650;2023-01-15T16:31:43;6.10;;;4.70;;
63346;SDS011;49472;49.880;8.650;2023-01-15T16:34:16;10.47;;;7.60;;
63346;SDS011;49472;49.880;8.650;2023-01-15T16:36:43;11.53;;;10.63;;
63346;SDS011;49472;49.880;8.650;2023-01-15T16:39:28;11.77;;;10.63;;
63346;SDS011;49472;49.880;8.650;2023-01-15T16:42:00;18.43;;;15.57;;
63346;SDS011;49472;49.880;8.650;2023-01-15T16:44:38;12.67;;;11.77;;
63346;SDS011;49472;49.880;8.650;2023-01-15T16:47:09;12.03;;;10.90;;
63346;SDS011;49472;49.880;8.650;2023-01-15T16:49:47;13.67;;;12.30;;
63346;SDS011;49472;49.880;8.650;2023-01-15T17:00:44;11.93;;;10.80;;
63346;SDS011;49472;49.880;8.650;2023-01-15T17:03:21;12.03;;;10.90;;
63346;SDS011;49472;49.880;8.650;2023-01-15T17:05:55;13.67;;;12.27;;
63346;SDS011;49472;49.880;8.650;2023-01-15T17:08:31;11.80;;;10.63;;
63346;SDS011;49472;49.880;8.650;2023-01-15T17:11:02;11.90;;;10.70;;
63346;SDS011;49472;49.880;8.650;2023-01-15T17:13:36;12.03;;;10.93;;
63346;SDS011;49472;49.880;8.650;2023-01-15T17:18:36;10.87;;;10.10;;
63346;SDS011;49472;49.880;8.650;2023-01-15T17:21:02;10.63;;;9.93;;
63346;SDS011;49472;49.880;8.650;2023-01-15T17:23:27;15.10;;;12.20;;
63346;SDS011;49472;49.880;8.650;2023-01-15T17:25:56;23.43;;;11.00;;
63346;SDS011;49472;49.880;8.650;2023-01-15T17:28:22;12.20;;;11.20;;
63346;SDS011;49472;49.880;8.650;2023-01-15T17:30:49;12.40;;;11.40;;
63346;SDS011;49472;49.880;8.650;2023-01-15T17:33:17;10.60;;;9.60;;
63346;SDS011;49472;49.880;8.650;2023-01-15T17:35:43;10.03;;;9.10;;
63346;SDS011;49472;49.880;8.650;2023-01-15T17:38:12;14.70;;;12.10;;
63346;SDS011;49472;49.880;8.650;2023-01-15T17:40:38;11.40;;;10.50;;
63346;SDS011;49472;49.880;8.650;2023-01-15T17:43:04;11.90;;;10.73;;
63346;SDS011;49472;49.880;8.650;2023-01-15T17:45:30;12.27;;;11.20;;
63346;SDS011;49472;49.880;8.650;2023-01-15T17:47:57;8.67;;;7.90;;
63346;SDS011;49472;49.880;8.650;2023-01-15T17:50:23;9.63;;;8.63;;
63346;SDS011;49472;49.880;8.650;2023-01-15T17:52:49;15.50;;;9.50;;
63346;SDS011;49472;49.880;8.650;2023-01-15T17:55:19;12.87;;;9.73;;